createdAt,value
2023-02-16T00:03:36.750Z,4.15
2023-02-16T00:08:38.318Z,4.20
2023-02-16T00:13:41.253Z,3.97
2023-02-16T00:18:42.841Z,4.02
2023-02-16T00:23:44.779Z,3.90
2023-02-16T00:28:49.397Z,3.87
2023-02-16T00:33:51.030Z,3.95
2023-02-16T00:38:52.663Z,3.89
2023-02-16T00:43:55.891Z,3.76
2023-02-16T00:48:57.409Z,3.69
2023-02-16T00:53:58.994Z,3.45
2023-02-16T00:59:05.490Z,3.52
2023-02-16T01:04:18.289Z,3.46
2023-02-16T01:09:20.785Z,3.46
2023-02-16T01:14:23.753Z,3.43
2023-02-16T01:19:25.676Z,3.47
2023-02-16T01:24:27.250Z,3.70
2023-02-16T01:29:30.466Z,3.62
2023-02-16T01:34:32.027Z,3.93
2023-02-16T01:39:33.614Z,4.03
2023-02-16T01:44:41.146Z,4.04
2023-02-16T01:49:42.636Z,3.91
2023-02-16T01:54:52.262Z,3.80
2023-02-16T02:00:15.932Z,3.50
2023-02-16T02:05:25.240Z,3.42
2023-02-16T02:10:34.137Z,3.41
2023-02-16T02:15:37.187Z,3.23
2023-02-16T02:20:52.468Z,3.12
2023-02-16T02:26:25.239Z,3.08
2023-02-16T02:31:43.092Z,3.23
2023-02-16T02:36:49.811Z,3.26
2023-02-16T02:41:57.379Z,3.16
2023-02-16T02:47:00.060Z,3.23
2023-02-16T02:52:02.074Z,3.23
2023-02-16T02:57:08.497Z,3.17
2023-02-16T03:02:12.908Z,3.24
2023-02-16T03:07:15.005Z,3.20
2023-02-16T03:12:16.600Z,3.15
2023-02-16T03:17:22.043Z,3.14
2023-02-16T03:22:23.985Z,3.14
2023-02-16T03:27:29.455Z,3.10
2023-02-16T03:32:32.636Z,2.89
2023-02-16T03:37:34.753Z,2.80
2023-02-16T03:42:36.290Z,2.78
2023-02-16T03:47:39.076Z,2.94
2023-02-16T03:52:40.715Z,3.01
2023-02-16T03:57:42.227Z,2.98
2023-02-16T04:02:45.176Z,2.79
2023-02-16T04:07:46.982Z,2.87
2023-02-16T04:12:48.719Z,2.94
2023-02-16T04:17:52.056Z,3.01
2023-02-16T04:22:54.242Z,2.93
2023-02-16T04:27:56.344Z,3.06
2023-02-16T04:32:59.192Z,3.52
2023-02-16T04:38:00.730Z,3.47
2023-02-16T04:43:02.292Z,3.68
2023-02-16T04:48:05.833Z,3.65
2023-02-16T04:53:07.513Z,3.72
2023-02-16T04:58:09.087Z,3.86
2023-02-16T05:03:12.073Z,3.76
2023-02-16T05:08:13.675Z,3.73
2023-02-16T05:13:15.211Z,3.84
2023-02-16T05:18:18.125Z,3.87
2023-02-16T05:23:19.683Z,3.86
2023-02-16T05:28:21.288Z,3.81
2023-02-16T05:33:24.319Z,3.76
2023-02-16T05:38:25.800Z,3.76
2023-02-16T05:43:27.279Z,3.78
2023-02-16T05:48:30.059Z,3.82
2023-02-16T05:53:31.562Z,3.87
2023-02-16T05:58:33.340Z,3.82
2023-02-16T06:03:36.469Z,3.88
2023-02-16T06:08:38.521Z,3.77
2023-02-16T06:13:39.977Z,3.58
2023-02-16T06:18:44.884Z,3.39
2023-02-16T06:23:46.560Z,3.10
2023-02-16T06:28:48.217Z,2.91
2023-02-16T06:33:51.426Z,2.83
2023-02-16T06:38:52.996Z,2.92
2023-02-16T06:43:54.537Z,2.69
2023-02-16T06:48:57.750Z,2.71
2023-02-16T06:53:59.337Z,2.85
2023-02-16T06:59:01.249Z,3.05
2023-02-16T07:04:04.240Z,3.09
2023-02-16T07:09:05.801Z,3.24
2023-02-16T07:14:07.670Z,3.14
2023-02-16T07:19:10.943Z,3.20
2023-02-16T07:24:12.393Z,3.21
2023-02-16T07:29:13.886Z,3.29
2023-02-16T07:34:16.926Z,3.22
2023-02-16T07:39:18.577Z,3.42
2023-02-16T07:44:20.350Z,3.62
2023-02-16T07:49:23.474Z,3.88
2023-02-16T07:54:25.036Z,4.11
2023-02-16T07:59:26.569Z,4.10
2023-02-16T08:04:29.412Z,4.53
2023-02-16T08:09:30.966Z,4.77
2023-02-16T08:14:32.515Z,5.05
2023-02-16T08:19:35.576Z,5.11
2023-02-16T08:24:37.153Z,5.20
2023-02-16T08:29:38.853Z,5.34
2023-02-16T08:34:43.430Z,5.50
2023-02-16T08:39:45.106Z,5.80
2023-02-16T08:44:46.745Z,5.37
2023-02-16T08:49:49.606Z,5.34
2023-02-16T08:54:51.207Z,5.75
2023-02-16T08:59:52.720Z,5.86
2023-02-16T09:04:56.013Z,5.85
2023-02-16T09:09:57.483Z,6.16
2023-02-16T09:14:58.926Z,6.37
2023-02-16T09:20:01.951Z,6.34
2023-02-16T09:25:03.657Z,7.41
2023-02-16T09:30:06.362Z,7.68
2023-02-16T09:35:09.366Z,7.89
2023-02-16T09:40:13.120Z,8.04
2023-02-16T09:45:17.390Z,8.28
2023-02-16T09:50:38.641Z,7.99
2023-02-16T09:55:54.375Z,8.42
2023-02-16T10:01:00.876Z,8.73
2023-02-16T10:06:22.775Z,8.99
2023-02-16T10:11:28.169Z,9.24
2023-02-16T10:16:37.118Z,9.74
2023-02-16T10:21:45.028Z,9.10
2023-02-16T10:26:50.704Z,8.85
2023-02-16T10:32:04.124Z,8.79
2023-02-16T10:37:29.115Z,8.81
2023-02-16T10:42:38.783Z,9.73
2023-02-16T10:47:42.483Z,9.51
2023-02-16T10:52:45.618Z,9.72
2023-02-16T10:57:52.859Z,9.60
2023-02-16T11:02:55.482Z,9.23
2023-02-16T11:08:00.698Z,8.83
2023-02-16T11:13:02.942Z,9.11
2023-02-16T11:18:07.831Z,8.96
2023-02-16T11:23:21.425Z,9.26
2023-02-16T11:28:29.566Z,9.06
2023-02-16T11:33:32.973Z,9.42
2023-02-16T11:38:36.674Z,9.57
2023-02-16T11:43:41.682Z,10.05
2023-02-16T11:48:44.018Z,10.52
2023-02-16T11:54:00.158Z,10.28
2023-02-16T11:59:16.559Z,10.43
2023-02-16T12:04:32.679Z,10.62
2023-02-16T12:09:44.818Z,10.90
2023-02-16T12:14:59.135Z,10.71
2023-02-16T12:20:12.422Z,10.92
2023-02-16T12:25:30.293Z,10.79
2023-02-16T12:30:45.302Z,10.88
2023-02-16T12:36:05.322Z,10.80
2023-02-16T12:41:19.898Z,10.68
2023-02-16T12:46:26.789Z,10.70
2023-02-16T12:51:34.607Z,11.10
2023-02-16T12:56:42.134Z,11.10
2023-02-16T13:01:46.398Z,11.13
2023-02-16T13:06:55.861Z,10.77
2023-02-16T13:12:05.850Z,11.00
2023-02-16T13:17:12.199Z,10.89
2023-02-16T13:22:35.956Z,11.04
2023-02-16T13:27:48.877Z,10.72
2023-02-16T13:33:07.864Z,10.55
2023-02-16T13:38:41.169Z,11.05
2023-02-16T13:43:50.902Z,11.38
2023-02-16T13:48:53.101Z,11.06
2023-02-16T13:53:57.760Z,11.29
2023-02-16T13:59:39.285Z,11.23
2023-02-16T14:05:02.276Z,11.16
2023-02-16T14:10:05.608Z,11.69
2023-02-16T14:15:19.783Z,11.47
2023-02-16T14:20:29.558Z,11.13
2023-02-16T14:25:35.417Z,11.23
2023-02-16T14:30:48.433Z,11.22
2023-02-16T14:36:07.266Z,11.12
2023-02-16T14:41:13.973Z,11.25
2023-02-16T14:46:44.813Z,11.38
2023-02-16T14:52:31.057Z,11.30
2023-02-16T14:57:36.242Z,11.13
2023-02-16T15:02:42.099Z,11.45
2023-02-16T15:07:45.073Z,11.53
2023-02-16T15:12:46.646Z,11.63
2023-02-16T15:17:50.133Z,11.52
2023-02-16T15:22:53.533Z,11.44
2023-02-16T15:27:57.361Z,11.43
2023-02-16T15:33:02.686Z,11.25
2023-02-16T15:38:08.416Z,11.33
2023-02-16T15:43:22.152Z,11.12
2023-02-16T15:48:28.156Z,11.19
2023-02-16T15:53:37.335Z,10.96
2023-02-16T15:58:38.953Z,10.87
2023-02-16T16:03:43.222Z,10.82
2023-02-16T16:08:45.218Z,10.74
2023-02-16T16:13:46.866Z,10.81
2023-02-16T16:18:53.031Z,10.76
2023-02-16T16:23:57.931Z,10.80
2023-02-16T16:28:59.742Z,10.72
2023-02-16T16:34:05.119Z,10.76
2023-02-16T16:39:19.428Z,10.83
2023-02-16T16:44:33.287Z,10.55
2023-02-16T16:49:36.244Z,10.30
2023-02-16T16:54:37.816Z,10.39
2023-02-16T16:59:40.403Z,10.35
2023-02-16T17:04:43.696Z,10.27
2023-02-16T17:09:45.260Z,10.31
2023-02-16T17:14:46.778Z,10.18
2023-02-16T17:19:49.646Z,10.16
2023-02-16T17:24:51.224Z,9.94
2023-02-16T17:29:52.892Z,9.97
2023-02-16T17:34:55.833Z,9.91
2023-02-16T17:39:57.368Z,9.79
2023-02-16T17:44:58.917Z,9.72
2023-02-16T17:50:02.153Z,9.77
2023-02-16T17:55:04.095Z,9.63
2023-02-16T18:00:07.881Z,9.71
2023-02-16T18:05:10.784Z,9.75
2023-02-16T18:10:31.466Z,9.65
2023-02-16T18:15:33.401Z,9.58
2023-02-16T18:20:36.312Z,9.52
2023-02-16T18:25:38.108Z,9.52
2023-02-16T18:30:40.020Z,9.50
2023-02-16T18:35:43.543Z,9.62
2023-02-16T18:40:45.662Z,9.51
2023-02-16T18:45:47.240Z,9.49
2023-02-16T18:50:50.140Z,9.49
2023-02-16T18:55:51.662Z,9.26
2023-02-16T19:00:53.213Z,9.28
2023-02-16T19:05:56.021Z,9.14
2023-02-16T19:10:57.490Z,9.10
2023-02-16T19:15:59.156Z,8.93
2023-02-16T19:21:06.005Z,8.97
2023-02-16T19:26:08.540Z,9.08
2023-02-16T19:31:17.031Z,8.99
2023-02-16T19:36:20.395Z,9.06
2023-02-16T19:41:24.575Z,8.96
2023-02-16T19:46:26.933Z,8.85
2023-02-16T19:51:30.271Z,8.89
2023-02-16T19:56:31.933Z,8.95
2023-02-16T20:01:33.935Z,8.90
2023-02-16T20:06:36.894Z,8.89
2023-02-16T20:11:39.094Z,8.86
2023-02-16T20:16:40.977Z,8.82
2023-02-16T20:21:44.032Z,8.77
2023-02-16T20:26:47.028Z,8.66
2023-02-16T20:31:50.721Z,8.86
2023-02-16T20:36:54.419Z,8.76
2023-02-16T20:41:56.182Z,8.71
2023-02-16T20:46:57.710Z,8.71
2023-02-16T20:52:00.555Z,8.78
2023-02-16T20:57:02.495Z,8.68
2023-02-16T21:02:04.408Z,8.69
2023-02-16T21:07:07.302Z,8.58
2023-02-16T21:12:08.940Z,8.61
2023-02-16T21:17:10.496Z,8.55
2023-02-16T21:22:13.391Z,8.58
2023-02-16T21:27:14.985Z,8.58
2023-02-16T21:32:16.482Z,8.53
2023-02-16T21:37:19.308Z,8.37
2023-02-16T21:42:20.957Z,8.27
2023-02-16T21:47:22.398Z,8.42
2023-02-16T21:52:25.780Z,8.27
2023-02-16T21:57:27.306Z,8.23
2023-02-16T22:02:28.872Z,8.25
2023-02-16T22:07:33.289Z,8.24
2023-02-16T22:12:34.832Z,8.31
2023-02-16T22:17:36.368Z,8.29
2023-02-16T22:22:39.319Z,8.35
2023-02-16T22:27:40.914Z,8.38
2023-02-16T22:32:42.411Z,8.24
2023-02-16T22:37:45.353Z,8.40
2023-02-16T22:42:46.896Z,8.35
2023-02-16T22:47:48.566Z,8.43
2023-02-16T22:52:52.509Z,8.49
2023-02-16T22:57:54.032Z,8.29
2023-02-16T23:02:55.487Z,8.23
2023-02-16T23:07:58.309Z,7.92
2023-02-16T23:12:59.939Z,8.16
2023-02-16T23:18:01.744Z,8.15
2023-02-16T23:23:04.586Z,8.16
2023-02-16T23:28:06.121Z,8.08
2023-02-16T23:33:07.600Z,8.10
2023-02-16T23:38:13.169Z,8.34
2023-02-16T23:43:14.702Z,8.29
2023-02-16T23:48:16.507Z,8.17
2023-02-16T23:53:20.646Z,8.07
2023-02-16T23:58:22.203Z,8.06
